Time,TemperatureF,DewpointF,PressureIn,WindDirection,WindDirectionDegrees,WindSpeedMPH,WindSpeedGustMPH,Humidity,HourlyPrecipIn,Conditions,Clouds,dailyrainin,SoftwareType,DateUTC
2013-10-06 00:03:00,52.0,52.0,-100.00,SE,130,4.0,14.0,99,-99.99,,,-99.99,,2013-10-06 05:03:00,
2013-10-06 00:22:00,53.0,52.0,-100.00,ESE,115,6.0,13.0,99,-99.99,,,-99.99,,2013-10-06 05:22:00,
2013-10-06 00:43:00,53.0,52.0,-100.00,SSE,150,4.0,12.0,99,-99.99,,,-99.99,,2013-10-06 05:43:00,
2013-10-06 00:52:00,53.0,52.0,-100.00,SSE,150,4.0,12.0,99,-99.99,,,-99.99,,2013-10-06 05:52:00,
2013-10-06 01:02:00,53.0,52.0,-100.00,SSE,150,4.0,12.0,99,-99.99,,,-99.99,,2013-10-06 06:02:00,
2013-10-06 01:42:00,53.0,53.0,-100.00,ENE,60,1.0,1.0,99,-99.99,,,-99.99,,2013-10-06 06:42:00,
2013-10-06 01:52:00,53.0,53.0,-100.00,ENE,60,1.0,1.0,99,-99.99,,,-99.99,,2013-10-06 06:52:00,
2013-10-06 02:02:00,53.0,53.0,-100.00,ENE,60,1.0,1.0,99,-99.99,,,-99.99,,2013-10-06 07:02:00,
2013-10-06 03:22:00,53.0,53.0,-100.00,SW,220,1.0,3.0,99,-99.99,,,-99.99,,2013-10-06 08:22:00,
2013-10-06 03:42:00,53.0,53.0,-100.00,WSW,250,1.0,2.0,99,-99.99,,,-99.99,,2013-10-06 08:42:00,
2013-10-06 03:52:00,53.0,53.0,-100.00,WSW,250,1.0,2.0,99,-99.99,,,-99.99,,2013-10-06 08:52:00,
2013-10-06 04:01:00,53.0,53.0,-100.00,WSW,250,1.0,2.0,99,-99.99,,,-99.99,,2013-10-06 09:01:00,
2013-10-06 04:43:00,53.0,53.0,-100.00,SW,230,1.0,3.0,99,-99.99,,,-99.99,,2013-10-06 09:43:00,
2013-10-06 04:53:00,53.0,53.0,-100.00,SW,230,1.0,3.0,99,-99.99,,,-99.99,,2013-10-06 09:53:00,
2013-10-06 05:03:00,53.0,53.0,-100.00,SW,230,1.0,3.0,99,-99.99,,,-99.99,,2013-10-06 10:03:00,
2013-10-06 05:43:00,52.0,51.0,-100.00,NW,310,2.0,10.0,99,-99.99,,,-99.99,,2013-10-06 10:43:00,
2013-10-06 05:53:00,52.0,51.0,-100.00,NW,310,2.0,10.0,99,-99.99,,,-99.99,,2013-10-06 10:53:00,
2013-10-06 06:02:00,52.0,51.0,-100.00,NW,310,2.0,10.0,99,-99.99,,,-99.99,,2013-10-06 11:02:00,
2013-10-06 06:42:00,51.0,51.0,-100.00,WNW,300,0.0,6.0,99,-99.99,,,-99.99,,2013-10-06 11:42:00,
2013-10-06 06:52:00,51.0,51.0,-100.00,WNW,300,0.0,6.0,99,-99.99,,,-99.99,,2013-10-06 11:52:00,
2013-10-06 07:02:00,51.0,51.0,-100.00,WNW,300,0.0,6.0,99,-99.99,,,-99.99,,2013-10-06 12:02:00,
2013-10-06 07:22:00,51.0,50.0,-100.00,North,0,1.0,2.0,99,-99.99,,,-99.99,,2013-10-06 12:22:00,
2013-10-06 07:32:00,51.0,50.0,-100.00,North,0,1.0,2.0,99,-99.99,,,-99.99,,2013-10-06 12:32:00,
2013-10-06 07:42:00,51.0,50.0,-100.00,North,0,1.0,2.0,99,-99.99,,,-99.99,,2013-10-06 12:42:00,
2013-10-06 07:52:00,51.0,50.0,-100.00,North,0,1.0,2.0,99,-99.99,,,-99.99,,2013-10-06 12:52:00,
2013-10-06 08:02:00,51.0,50.0,-100.00,North,0,1.0,2.0,99,-99.99,,,-99.99,,2013-10-06 13:02:00,
2013-10-06 08:42:00,50.0,49.0,-100.00,WSW,245,3.0,10.0,99,-99.99,,,-99.99,,2013-10-06 13:42:00,
2013-10-06 08:52:00,50.0,49.0,-100.00,WSW,245,3.0,10.0,99,-99.99,,,-99.99,,2013-10-06 13:52:00,
2013-10-06 09:02:00,50.0,49.0,-100.00,WSW,245,3.0,10.0,99,-99.99,,,-99.99,,2013-10-06 14:02:00,
2013-10-06 09:42:00,48.0,48.0,-100.00,SW,230,4.0,10.0,99,-99.99,,,-99.99,,2013-10-06 14:42:00,
2013-10-06 09:52:00,48.0,48.0,-100.00,SW,230,4.0,10.0,99,-99.99,,,-99.99,,2013-10-06 14:52:00,
2013-10-06 10:02:00,48.0,48.0,-100.00,SW,230,4.0,10.0,99,-99.99,,,-99.99,,2013-10-06 15:02:00,
2013-10-06 10:44:00,48.0,48.0,-100.00,West,260,5.0,8.0,99,-99.99,,,-99.99,,2013-10-06 15:44:00,
2013-10-06 10:54:00,48.0,48.0,-100.00,West,260,5.0,8.0,99,-99.99,,,-99.99,,2013-10-06 15:54:00,
2013-10-06 11:03:00,48.0,48.0,-100.00,West,260,5.0,8.0,99,-99.99,,,-99.99,,2013-10-06 16:03:00,
2013-10-06 11:23:00,51.0,51.0,-100.00,West,270,1.0,7.0,99,-99.99,,,-99.99,,2013-10-06 16:23:00,
2013-10-06 11:33:00,51.0,51.0,-100.00,West,270,1.0,7.0,99,-99.99,,,-99.99,,2013-10-06 16:33:00,
2013-10-06 11:43:00,51.0,51.0,-100.00,West,270,1.0,7.0,99,-99.99,,,-99.99,,2013-10-06 16:43:00,
2013-10-06 11:53:00,51.0,51.0,-100.00,West,270,1.0,7.0,99,-99.99,,,-99.99,,2013-10-06 16:53:00,
2013-10-06 12:02:00,51.0,51.0,-100.00,West,270,1.0,7.0,99,-99.99,,,-99.99,,2013-10-06 17:02:00,
2013-10-06 12:22:00,52.0,45.0,-100.00,NNW,330,3.0,13.0,77,-99.99,,,-99.99,,2013-10-06 17:22:00,
2013-10-06 12:33:00,52.0,45.0,-100.00,NNW,330,3.0,13.0,77,-99.99,,,-99.99,,2013-10-06 17:33:00,
2013-10-06 12:42:00,52.0,45.0,-100.00,NNW,330,3.0,13.0,77,-99.99,,,-99.99,,2013-10-06 17:42:00,
2013-10-06 12:52:00,52.0,45.0,-100.00,NNW,330,3.0,13.0,77,-99.99,,,-99.99,,2013-10-06 17:52:00,
2013-10-06 13:02:00,52.0,45.0,-100.00,NNW,330,3.0,13.0,77,-99.99,,,-99.99,,2013-10-06 18:02:00,
2013-10-06 13:22:00,53.0,44.0,-100.00,NNW,340,11.0,15.0,70,-99.99,,,-99.99,,2013-10-06 18:22:00,
2013-10-06 13:32:00,53.0,44.0,-100.00,NNW,340,11.0,15.0,70,-99.99,,,-99.99,,2013-10-06 18:32:00,
2013-10-06 13:43:00,53.0,44.0,-100.00,NNW,340,11.0,15.0,70,-99.99,,,-99.99,,2013-10-06 18:43:00,
2013-10-06 13:52:00,53.0,44.0,-100.00,NNW,340,11.0,15.0,70,-99.99,,,-99.99,,2013-10-06 18:52:00,
2013-10-06 14:01:00,53.0,44.0,-100.00,NNW,340,11.0,15.0,70,-99.99,,,-99.99,,2013-10-06 19:01:00,
2013-10-06 14:23:00,59.0,41.0,-100.00,West,260,2.0,7.0,52,-99.99,,,-99.99,,2013-10-06 19:23:00,
2013-10-06 14:32:00,59.0,41.0,-100.00,West,260,2.0,7.0,52,-99.99,,,-99.99,,2013-10-06 19:32:00,
2013-10-06 14:42:00,59.0,41.0,-100.00,West,260,2.0,7.0,52,-99.99,,,-99.99,,2013-10-06 19:42:00,
2013-10-06 14:53:00,59.0,41.0,-100.00,West,260,2.0,7.0,52,-99.99,,,-99.99,,2013-10-06 19:53:00,
2013-10-06 15:02:00,59.0,41.0,-100.00,West,260,2.0,7.0,52,-99.99,,,-99.99,,2013-10-06 20:02:00,
2013-10-06 15:42:00,58.0,43.0,-100.00,NW,320,4.0,7.0,58,-99.99,,,-99.99,,2013-10-06 20:42:00,
2013-10-06 15:52:00,58.0,43.0,-100.00,NW,320,4.0,7.0,58,-99.99,,,-99.99,,2013-10-06 20:52:00,
2013-10-06 16:01:00,58.0,43.0,-100.00,NW,320,4.0,7.0,58,-99.99,,,-99.99,,2013-10-06 21:01:00,
2013-10-06 16:04:00,58.0,42.0,-100.00,NW,315,2.0,5.0,56,-99.99,,,-99.99,,2013-10-06 21:04:00,
2013-10-06 16:22:00,58.0,42.0,-100.00,NW,315,2.0,5.0,56,-99.99,,,-99.99,,2013-10-06 21:22:00,
2013-10-06 16:34:00,58.0,42.0,-100.00,NW,315,2.0,5.0,56,-99.99,,,-99.99,,2013-10-06 21:34:00,
2013-10-06 16:44:00,58.0,42.0,-100.00,NW,315,2.0,5.0,56,-99.99,,,-99.99,,2013-10-06 21:44:00,
2013-10-06 16:55:00,58.0,42.0,-100.00,NW,315,2.0,5.0,56,-99.99,,,-99.99,,2013-10-06 21:55:00,
2013-10-06 17:24:00,55.0,46.0,-100.00,NNW,340,7.0,10.0,70,-99.99,,,-99.99,,2013-10-06 22:24:00,
2013-10-06 17:33:00,55.0,46.0,-100.00,NNW,340,7.0,10.0,70,-99.99,,,-99.99,,2013-10-06 22:33:00,
2013-10-06 17:43:00,55.0,46.0,-100.00,NNW,340,7.0,10.0,70,-99.99,,,-99.99,,2013-10-06 22:43:00,
2013-10-06 17:54:00,55.0,46.0,-100.00,NNW,340,7.0,10.0,70,-99.99,,,-99.99,,2013-10-06 22:54:00,
2013-10-06 18:03:00,55.0,46.0,-100.00,NNW,340,7.0,10.0,70,-99.99,,,-99.99,,2013-10-06 23:03:00,
2013-10-06 18:22:00,54.0,48.0,-100.00,North,0,6.0,10.0,79,-99.99,,,-99.99,,2013-10-06 23:22:00,
2013-10-06 18:34:00,54.0,48.0,-100.00,North,0,6.0,10.0,79,-99.99,,,-99.99,,2013-10-06 23:34:00,
2013-10-06 18:42:00,54.0,48.0,-100.00,North,0,6.0,10.0,79,-99.99,,,-99.99,,2013-10-06 23:42:00,
2013-10-06 18:53:00,54.0,48.0,-100.00,North,0,6.0,10.0,79,-99.99,,,-99.99,,2013-10-06 23:53:00,
2013-10-06 19:02:00,54.0,48.0,-100.00,North,0,6.0,10.0,79,-99.99,,,-99.99,,2013-10-07 00:02:00,
2013-10-06 19:22:00,51.0,48.0,-100.00,North,350,12.0,19.0,90,-99.99,,,-99.99,,2013-10-07 00:22:00,
2013-10-06 19:32:00,51.0,48.0,-100.00,North,350,12.0,19.0,90,-99.99,,,-99.99,,2013-10-07 00:32:00,
2013-10-06 19:42:00,51.0,48.0,-100.00,North,350,12.0,19.0,90,-99.99,,,-99.99,,2013-10-07 00:42:00,
2013-10-06 19:52:00,51.0,48.0,-100.00,North,350,12.0,19.0,90,-99.99,,,-99.99,,2013-10-07 00:52:00,
2013-10-06 20:42:00,49.0,47.0,-100.00,NNW,345,6.0,10.0,92,-99.99,,,-99.99,,2013-10-07 01:42:00,
2013-10-06 20:53:00,49.0,47.0,-100.00,NNW,345,6.0,10.0,92,-99.99,,,-99.99,,2013-10-07 01:53:00,
2013-10-06 21:02:00,49.0,47.0,-100.00,NNW,345,6.0,10.0,92,-99.99,,,-99.99,,2013-10-07 02:02:00,
2013-10-06 21:22:00,48.0,47.0,-100.00,North,350,4.0,10.0,97,-99.99,,,-99.99,,2013-10-07 02:22:00,
2013-10-06 21:32:00,48.0,47.0,-100.00,North,350,4.0,10.0,97,-99.99,,,-99.99,,2013-10-07 02:32:00,
2013-10-06 21:42:00,48.0,47.0,-100.00,North,350,4.0,10.0,97,-99.99,,,-99.99,,2013-10-07 02:42:00,
2013-10-06 21:53:00,48.0,47.0,-100.00,North,350,4.0,10.0,97,-99.99,,,-99.99,,2013-10-07 02:53:00,
2013-10-06 22:02:00,48.0,47.0,-100.00,North,350,4.0,10.0,97,-99.99,,,-99.99,,2013-10-07 03:02:00,
2013-10-06 22:04:00,47.0,47.0,-100.00,North,350,6.0,11.0,98,-99.99,,,-99.99,,2013-10-07 03:04:00,
2013-10-06 22:22:00,47.0,47.0,-100.00,North,350,6.0,11.0,98,-99.99,,,-99.99,,2013-10-07 03:22:00,
2013-10-06 22:34:00,47.0,47.0,-100.00,North,350,6.0,11.0,98,-99.99,,,-99.99,,2013-10-07 03:34:00,
2013-10-06 22:44:00,47.0,47.0,-100.00,North,350,6.0,11.0,98,-99.99,,,-99.99,,2013-10-07 03:44:00,
2013-10-06 22:54:00,47.0,47.0,-100.00,North,350,6.0,11.0,98,-99.99,,,-99.99,,2013-10-07 03:54:00,
2013-10-06 23:44:00,46.0,46.0,-100.00,NNW,345,6.0,10.0,99,-99.99,,,-99.99,,2013-10-07 04:44:00,
2013-10-06 23:53:00,46.0,46.0,-100.00,NNW,345,6.0,10.0,99,-99.99,,,-99.99,,2013-10-07 04:53:00,